createdAt,value
2016-10-16T00:00:04.306Z,0
2016-10-16T00:01:15.468Z,0
2016-10-16T00:02:26.617Z,0
2016-10-16T00:03:37.823Z,0
2016-10-16T00:04:49.012Z,0
2016-10-16T00:06:00.185Z,0
2016-10-16T00:07:11.372Z,0
2016-10-16T00:08:22.512Z,0
2016-10-16T00:09:33.678Z,0
2016-10-16T00:10:44.830Z,0
2016-10-16T00:11:55.995Z,0
2016-10-16T00:13:07.139Z,0
2016-10-16T00:14:18.286Z,0
2016-10-16T00:15:29.432Z,0
2016-10-16T00:16:40.588Z,0
2016-10-16T00:17:51.745Z,0
2016-10-16T00:19:02.944Z,0
2016-10-16T00:20:14.107Z,0
2016-10-16T00:21:25.277Z,0
2016-10-16T00:22:36.441Z,0
2016-10-16T00:23:47.644Z,0
2016-10-16T00:24:58.815Z,0
2016-10-16T00:26:09.985Z,0
2016-10-16T00:27:21.164Z,0
2016-10-16T00:28:32.316Z,0
2016-10-16T00:29:43.470Z,0
2016-10-16T00:30:54.645Z,0
2016-10-16T00:32:05.829Z,0
2016-10-16T00:33:16.975Z,0
2016-10-16T00:34:28.158Z,0
2016-10-16T00:35:39.312Z,0
2016-10-16T00:36:50.492Z,0
2016-10-16T00:38:01.679Z,0
2016-10-16T00:39:12.824Z,0
2016-10-16T00:40:55.590Z,0
2016-10-16T00:42:06.747Z,0
2016-10-16T00:43:17.894Z,0
2016-10-16T00:44:29.059Z,0
2016-10-16T00:45:40.779Z,0
2016-10-16T00:46:51.927Z,0
2016-10-16T00:48:03.114Z,0
2016-10-16T00:49:14.281Z,0
2016-10-16T00:50:25.442Z,0
2016-10-16T00:51:36.628Z,0
2016-10-16T00:52:47.800Z,0
2016-10-16T00:53:58.990Z,0
2016-10-16T00:55:10.173Z,0
2016-10-16T00:56:21.320Z,0
2016-10-16T00:57:32.475Z,0
2016-10-16T00:58:43.634Z,0
2016-10-16T00:59:55.911Z,0
2016-10-16T01:01:07.071Z,0
2016-10-16T01:02:18.243Z,0
2016-10-16T01:03:29.402Z,0
2016-10-16T01:04:40.559Z,0
2016-10-16T01:05:51.713Z,0
2016-10-16T01:07:02.889Z,0
2016-10-16T01:08:14.057Z,0
2016-10-16T01:09:25.238Z,0
2016-10-16T01:10:36.401Z,0
2016-10-16T01:11:47.555Z,0
2016-10-16T01:12:58.696Z,0
2016-10-16T01:14:09.868Z,0
2016-10-16T01:15:21.033Z,0
2016-10-16T01:16:32.197Z,0
2016-10-16T01:17:43.342Z,0
2016-10-16T01:18:54.514Z,0
2016-10-16T01:20:05.678Z,0
2016-10-16T01:21:16.839Z,0
2016-10-16T01:22:27.972Z,0
2016-10-16T01:23:39.134Z,0
2016-10-16T01:24:50.292Z,0
2016-10-16T01:26:01.456Z,0
2016-10-16T01:27:12.627Z,0
2016-10-16T01:28:23.794Z,0
2016-10-16T01:29:34.965Z,0
2016-10-16T01:30:46.130Z,0
2016-10-16T01:31:57.287Z,0
2016-10-16T01:33:08.999Z,0
2016-10-16T01:34:20.274Z,0
2016-10-16T01:35:31.427Z,0
2016-10-16T01:36:42.583Z,0
2016-10-16T01:37:53.747Z,0
2016-10-16T01:39:04.927Z,0
2016-10-16T01:40:16.089Z,0
2016-10-16T01:41:27.262Z,0
2016-10-16T01:42:38.415Z,0
2016-10-16T01:43:49.592Z,0
2016-10-16T01:45:00.754Z,0
2016-10-16T01:46:11.891Z,0
2016-10-16T01:47:23.056Z,0
2016-10-16T01:48:34.230Z,0
2016-10-16T01:49:45.396Z,0
2016-10-16T01:50:56.578Z,0
2016-10-16T01:52:07.725Z,0
2016-10-16T01:53:18.865Z,0
2016-10-16T01:54:30.014Z,0
2016-10-16T01:55:41.175Z,0
2016-10-16T01:56:52.360Z,0
2016-10-16T01:58:03.515Z,0
2016-10-16T01:59:14.673Z,0
2016-10-16T02:00:25.823Z,0
2016-10-16T02:01:36.990Z,0
2016-10-16T02:02:48.721Z,0
2016-10-16T02:03:59.913Z,0
2016-10-16T02:05:11.096Z,0
2016-10-16T02:06:22.243Z,0
2016-10-16T02:07:33.409Z,0
2016-10-16T02:08:44.556Z,0
2016-10-16T02:09:55.690Z,0
2016-10-16T02:11:06.844Z,0
2016-10-16T02:12:18.014Z,0
2016-10-16T02:13:29.186Z,0
2016-10-16T02:14:40.338Z,0
2016-10-16T02:15:51.498Z,0
2016-10-16T02:17:02.668Z,0
2016-10-16T02:18:13.838Z,0
2016-10-16T02:19:25.007Z,0
2016-10-16T02:20:36.171Z,0
2016-10-16T02:21:47.341Z,0
2016-10-16T02:22:58.518Z,0
2016-10-16T02:24:09.669Z,0
2016-10-16T02:25:20.859Z,0
2016-10-16T02:26:32.009Z,0
2016-10-16T02:27:43.181Z,0
2016-10-16T02:28:54.355Z,0
2016-10-16T02:30:05.525Z,0
2016-10-16T02:31:16.681Z,0
2016-10-16T02:32:27.829Z,0
2016-10-16T02:33:38.986Z,0
2016-10-16T02:34:50.165Z,0
2016-10-16T02:36:01.335Z,0
2016-10-16T02:37:12.519Z,0
2016-10-16T02:38:23.675Z,0
2016-10-16T02:39:34.814Z,0
2016-10-16T02:40:45.960Z,0
2016-10-16T02:41:57.142Z,0
2016-10-16T02:43:08.304Z,0
2016-10-16T02:44:19.455Z,0
2016-10-16T02:45:30.618Z,0
2016-10-16T02:46:41.816Z,0
2016-10-16T02:47:52.977Z,0
2016-10-16T02:49:04.121Z,0
2016-10-16T02:50:15.267Z,0
2016-10-16T02:51:26.434Z,0
2016-10-16T02:52:37.627Z,0
2016-10-16T02:53:48.813Z,0
2016-10-16T02:54:59.967Z,0
2016-10-16T02:56:11.118Z,0
2016-10-16T02:57:22.297Z,0
2016-10-16T02:58:33.436Z,0
2016-10-16T02:59:44.605Z,0
2016-10-16T03:00:55.788Z,0
2016-10-16T03:02:06.938Z,0
2016-10-16T03:03:18.097Z,0
2016-10-16T03:04:29.274Z,0
2016-10-16T03:05:40.452Z,0
2016-10-16T03:06:51.614Z,0
2016-10-16T03:08:02.775Z,0
2016-10-16T03:09:13.938Z,0
2016-10-16T03:10:25.093Z,0
2016-10-16T03:11:36.245Z,0
2016-10-16T03:12:47.390Z,0
2016-10-16T03:13:58.572Z,0
2016-10-16T03:15:09.753Z,0
2016-10-16T03:16:20.934Z,0
2016-10-16T03:17:32.089Z,0
2016-10-16T03:18:43.238Z,0
2016-10-16T03:19:54.411Z,0
2016-10-16T03:21:05.565Z,0
2016-10-16T03:22:16.717Z,0
2016-10-16T03:23:27.867Z,0
2016-10-16T03:24:39.018Z,0
2016-10-16T03:25:50.188Z,0
2016-10-16T03:27:01.357Z,0
2016-10-16T03:28:12.497Z,0
2016-10-16T03:29:23.647Z,0
2016-10-16T03:30:34.836Z,0
2016-10-16T03:31:45.984Z,0
2016-10-16T03:32:57.705Z,0
2016-10-16T03:34:08.902Z,0
2016-10-16T03:35:20.646Z,0
2016-10-16T03:36:31.796Z,0
2016-10-16T03:37:42.928Z,0
2016-10-16T03:38:54.064Z,0
2016-10-16T03:40:05.231Z,0
2016-10-16T03:41:16.935Z,0
2016-10-16T03:42:28.117Z,0
2016-10-16T03:43:39.292Z,0
2016-10-16T03:44:50.472Z,0
2016-10-16T03:46:01.633Z,0
2016-10-16T03:47:12.827Z,0
2016-10-16T03:48:23.995Z,0
2016-10-16T03:49:35.172Z,0
2016-10-16T03:50:46.344Z,0
2016-10-16T03:51:57.527Z,0
2016-10-16T03:53:08.702Z,0
2016-10-16T03:54:19.877Z,0
2016-10-16T03:55:31.044Z,0
2016-10-16T03:56:42.207Z,0
2016-10-16T03:57:53.364Z,0
2016-10-16T03:59:04.519Z,0
2016-10-16T04:00:15.665Z,0
2016-10-16T04:01:26.796Z,0
2016-10-16T04:02:38.501Z,0
2016-10-16T04:03:49.672Z,0
2016-10-16T04:05:00.829Z,0
2016-10-16T04:06:12.006Z,0
2016-10-16T04:07:23.177Z,0
2016-10-16T04:08:34.342Z,0
2016-10-16T04:09:45.510Z,0
2016-10-16T04:10:56.666Z,0
2016-10-16T04:12:07.843Z,0
2016-10-16T04:13:19.097Z,0
2016-10-16T04:14:30.264Z,0
2016-10-16T04:15:41.442Z,0
2016-10-16T04:16:52.636Z,0
2016-10-16T04:18:04.362Z,0
2016-10-16T04:19:15.535Z,0
2016-10-16T04:20:26.709Z,0
2016-10-16T04:21:37.852Z,0
2016-10-16T04:22:49.054Z,0
2016-10-16T04:24:00.243Z,0
2016-10-16T04:25:11.414Z,0
2016-10-16T04:26:22.595Z,0
2016-10-16T04:27:34.615Z,0
2016-10-16T04:28:46.335Z,0
2016-10-16T04:29:58.070Z,0
2016-10-16T04:31:09.210Z,0
2016-10-16T04:32:20.414Z,0
2016-10-16T04:33:31.549Z,0
2016-10-16T04:34:42.701Z,0
2016-10-16T04:35:53.853Z,0
2016-10-16T04:37:05.574Z,0
2016-10-16T04:38:16.730Z,0
2016-10-16T04:39:27.900Z,0
2016-10-16T04:40:39.047Z,0
2016-10-16T04:41:50.203Z,0
2016-10-16T04:43:01.371Z,0
2016-10-16T04:44:12.552Z,0
2016-10-16T04:45:23.745Z,0
2016-10-16T04:46:35.484Z,0
2016-10-16T04:47:46.680Z,0
2016-10-16T04:48:57.853Z,0
2016-10-16T04:50:09.020Z,0
2016-10-16T04:51:20.194Z,0
2016-10-16T04:52:31.363Z,0
2016-10-16T04:53:42.514Z,0
2016-10-16T04:54:53.656Z,0
2016-10-16T04:56:04.815Z,0
2016-10-16T04:57:15.975Z,0
2016-10-16T04:58:27.134Z,0
2016-10-16T04:59:38.295Z,0
2016-10-16T05:00:49.457Z,0
2016-10-16T05:02:00.652Z,0
2016-10-16T05:03:11.818Z,0
2016-10-16T05:04:22.993Z,0
2016-10-16T05:05:34.166Z,0
2016-10-16T05:06:45.328Z,0
2016-10-16T05:07:56.483Z,0
2016-10-16T05:09:07.642Z,0
2016-10-16T05:10:18.798Z,0
2016-10-16T05:11:29.953Z,0
2016-10-16T05:12:41.107Z,0
2016-10-16T05:13:52.260Z,0
2016-10-16T05:15:03.432Z,0
2016-10-16T05:16:14.577Z,0
2016-10-16T05:17:25.727Z,0
2016-10-16T05:18:36.888Z,0
2016-10-16T05:19:48.024Z,0
2016-10-16T05:20:59.200Z,0
2016-10-16T05:22:10.333Z,0
2016-10-16T05:23:21.493Z,0
2016-10-16T05:24:32.649Z,0
2016-10-16T05:25:43.815Z,0
2016-10-16T05:26:54.992Z,0
2016-10-16T05:28:06.166Z,0
2016-10-16T05:29:17.321Z,0
2016-10-16T05:30:28.463Z,0
2016-10-16T05:31:39.615Z,0
2016-10-16T05:32:50.783Z,0
2016-10-16T05:34:01.935Z,0
2016-10-16T05:35:13.124Z,0
2016-10-16T05:36:24.274Z,0
2016-10-16T05:37:35.417Z,0
2016-10-16T05:38:46.586Z,0
2016-10-16T05:39:57.751Z,0
2016-10-16T05:41:08.930Z,0
2016-10-16T05:42:20.072Z,0
2016-10-16T05:43:31.221Z,0
2016-10-16T05:44:42.371Z,0
2016-10-16T05:45:53.540Z,0
2016-10-16T05:47:04.693Z,0
2016-10-16T05:48:15.828Z,0
2016-10-16T05:49:26.970Z,0
2016-10-16T05:50:38.108Z,0
2016-10-16T05:51:49.261Z,0
2016-10-16T05:53:00.417Z,0
2016-10-16T05:54:11.554Z,0
2016-10-16T05:55:22.709Z,0
2016-10-16T05:56:33.870Z,0
2016-10-16T05:57:45.013Z,0
2016-10-16T05:58:56.193Z,0
2016-10-16T06:00:07.341Z,0
2016-10-16T06:01:18.485Z,0
2016-10-16T06:02:29.623Z,0
2016-10-16T06:03:40.825Z,0
2016-10-16T06:04:51.976Z,0
2016-10-16T06:06:03.142Z,0
2016-10-16T06:07:14.310Z,0
2016-10-16T06:08:25.447Z,0
2016-10-16T06:09:36.608Z,0
2016-10-16T06:10:47.771Z,0
2016-10-16T06:11:58.929Z,0
2016-10-16T06:13:10.071Z,0
2016-10-16T06:14:21.261Z,0
2016-10-16T06:15:32.418Z,0
2016-10-16T06:16:43.579Z,0
2016-10-16T06:17:54.794Z,0
2016-10-16T06:19:05.945Z,0
2016-10-16T06:20:17.113Z,0
2016-10-16T06:21:28.290Z,0
2016-10-16T06:22:39.447Z,0
2016-10-16T06:23:50.627Z,0
2016-10-16T06:25:01.779Z,0
2016-10-16T06:26:12.967Z,0
2016-10-16T06:27:24.123Z,0
2016-10-16T06:28:35.271Z,0
2016-10-16T06:29:46.443Z,0
2016-10-16T06:30:57.601Z,0
2016-10-16T06:32:08.777Z,0
2016-10-16T06:33:19.932Z,0
2016-10-16T06:34:31.099Z,0
2016-10-16T06:35:42.266Z,0
2016-10-16T06:36:53.449Z,0
2016-10-16T06:38:04.616Z,0
2016-10-16T06:39:16.390Z,0
2016-10-16T06:40:27.554Z,0
2016-10-16T06:41:38.716Z,0
2016-10-16T06:42:49.849Z,0
2016-10-16T06:44:01.048Z,0
2016-10-16T06:45:12.190Z,0
2016-10-16T06:46:23.366Z,0
2016-10-16T06:47:34.526Z,0
2016-10-16T06:48:45.694Z,0
2016-10-16T06:49:56.879Z,0
2016-10-16T06:51:08.049Z,0
2016-10-16T06:52:19.212Z,0
2016-10-16T06:53:30.967Z,0
2016-10-16T06:54:42.154Z,0
2016-10-16T06:55:53.312Z,0
2016-10-16T06:57:04.467Z,0
2016-10-16T06:58:15.631Z,0
2016-10-16T06:59:26.776Z,0
2016-10-16T07:00:37.969Z,0
2016-10-16T07:01:49.135Z,0
2016-10-16T07:03:00.873Z,0
2016-10-16T07:04:12.062Z,0
2016-10-16T07:05:23.212Z,0
2016-10-16T07:06:34.361Z,0
2016-10-16T07:07:45.535Z,0
2016-10-16T07:08:56.700Z,0
2016-10-16T07:10:07.843Z,0
2016-10-16T07:11:18.990Z,0
2016-10-16T07:12:30.764Z,0
2016-10-16T07:13:41.916Z,0
2016-10-16T07:14:53.083Z,0
2016-10-16T07:16:04.260Z,0
2016-10-16T07:17:15.447Z,0
2016-10-16T07:18:26.621Z,0
2016-10-16T07:19:37.813Z,0
2016-10-16T07:20:48.975Z,0
2016-10-16T07:22:00.137Z,0
2016-10-16T07:23:11.308Z,0
2016-10-16T07:24:22.505Z,0
2016-10-16T07:25:33.661Z,0
2016-10-16T07:26:44.824Z,0
2016-10-16T07:27:55.966Z,0
2016-10-16T07:29:07.126Z,0
2016-10-16T07:30:18.271Z,0
2016-10-16T07:31:29.442Z,0
2016-10-16T07:32:40.620Z,0
2016-10-16T07:33:51.785Z,0
2016-10-16T07:35:02.972Z,0
2016-10-16T07:36:14.161Z,0
2016-10-16T07:37:25.332Z,0
2016-10-16T07:38:36.483Z,0
2016-10-16T07:39:47.667Z,0
2016-10-16T07:40:58.823Z,0
2016-10-16T07:42:09.984Z,0
2016-10-16T07:43:21.135Z,0
2016-10-16T07:44:32.287Z,0
2016-10-16T07:45:43.464Z,0
2016-10-16T07:46:54.627Z,0
2016-10-16T07:48:05.775Z,0
2016-10-16T07:49:17.506Z,0
2016-10-16T07:50:28.700Z,0
2016-10-16T07:51:39.847Z,0
2016-10-16T07:52:51.016Z,0
2016-10-16T07:54:02.183Z,0
2016-10-16T07:55:13.436Z,0
2016-10-16T07:56:24.591Z,0
2016-10-16T07:57:35.743Z,0
2016-10-16T07:58:46.902Z,0
2016-10-16T07:59:58.036Z,0
2016-10-16T08:01:09.758Z,0
2016-10-16T08:02:20.952Z,0
2016-10-16T08:03:32.095Z,0
2016-10-16T08:04:43.254Z,0
2016-10-16T08:05:54.993Z,0
2016-10-16T08:07:06.134Z,0
2016-10-16T08:08:17.493Z,0
2016-10-16T08:09:28.659Z,0
2016-10-16T08:10:39.822Z,0
2016-10-16T08:11:50.968Z,0
2016-10-16T08:13:02.167Z,0
2016-10-16T08:14:13.328Z,0
2016-10-16T08:15:24.498Z,0
2016-10-16T08:16:35.658Z,0
2016-10-16T08:17:46.836Z,0
2016-10-16T08:18:58.004Z,0
2016-10-16T08:20:09.334Z,0
2016-10-16T08:21:20.568Z,0
2016-10-16T08:22:31.723Z,0
2016-10-16T08:23:42.887Z,5
2016-10-16T08:24:54.075Z,5
2016-10-16T08:26:05.234Z,10
2016-10-16T08:27:16.442Z,10
2016-10-16T08:28:27.607Z,10
2016-10-16T08:29:38.796Z,10
2016-10-16T08:30:49.972Z,15
2016-10-16T08:32:01.696Z,15
2016-10-16T08:33:12.840Z,20
2016-10-16T08:34:24.002Z,20
2016-10-16T08:35:35.188Z,25
2016-10-16T08:36:46.350Z,30
2016-10-16T08:37:57.542Z,35
2016-10-16T08:39:08.719Z,35
2016-10-16T08:40:19.869Z,40
2016-10-16T08:41:31.040Z,45
2016-10-16T08:42:42.219Z,50
2016-10-16T08:43:53.977Z,55
2016-10-16T08:45:05.127Z,60
2016-10-16T08:46:16.289Z,70
2016-10-16T08:47:27.467Z,75
2016-10-16T08:48:38.619Z,85
2016-10-16T08:49:49.761Z,90
2016-10-16T08:51:00.969Z,100
2016-10-16T08:52:12.145Z,100
2016-10-16T08:53:23.296Z,110
2016-10-16T08:54:34.458Z,115
2016-10-16T08:55:45.639Z,125
2016-10-16T08:56:56.777Z,135
2016-10-16T08:58:07.928Z,140
2016-10-16T08:59:19.112Z,150
2016-10-16T09:00:30.285Z,160
2016-10-16T09:01:41.467Z,165
2016-10-16T09:02:52.619Z,180
2016-10-16T09:04:03.815Z,190
2016-10-16T09:05:14.967Z,205
2016-10-16T09:06:26.133Z,220
2016-10-16T09:07:37.332Z,235
2016-10-16T09:08:48.455Z,255
2016-10-16T09:09:59.621Z,285
2016-10-16T09:11:10.764Z,305
2016-10-16T09:12:21.920Z,325
2016-10-16T09:13:33.095Z,335
2016-10-16T09:14:44.257Z,350
2016-10-16T09:15:55.389Z,400
2016-10-16T09:17:06.554Z,415
2016-10-16T09:18:17.748Z,425
2016-10-16T09:19:28.912Z,430
2016-10-16T09:20:40.080Z,475
2016-10-16T09:21:51.238Z,485
2016-10-16T09:23:02.405Z,545
2016-10-16T09:24:13.539Z,630
2016-10-16T09:25:24.698Z,705
2016-10-16T09:26:35.856Z,705
2016-10-16T09:27:46.999Z,705
2016-10-16T09:28:58.152Z,710
2016-10-16T09:30:09.312Z,710
2016-10-16T09:31:20.490Z,765
2016-10-16T09:32:31.634Z,785
2016-10-16T09:33:42.813Z,805
2016-10-16T09:34:53.994Z,835
2016-10-16T09:36:05.148Z,860
2016-10-16T09:37:16.330Z,920
2016-10-16T09:38:27.545Z,945
2016-10-16T09:39:38.713Z,975
2016-10-16T09:40:49.878Z,1005
2016-10-16T09:42:01.051Z,1030
2016-10-16T09:43:12.234Z,1070
2016-10-16T09:44:23.374Z,1090
2016-10-16T09:45:34.569Z,1110
2016-10-16T09:46:45.744Z,1125
2016-10-16T09:47:56.936Z,1135
2016-10-16T09:49:08.112Z,1165
2016-10-16T09:50:19.283Z,1210
2016-10-16T09:51:30.468Z,1245
2016-10-16T09:52:41.630Z,1265
2016-10-16T09:53:52.779Z,1340
2016-10-16T09:55:03.937Z,1335
2016-10-16T09:56:15.132Z,1340
2016-10-16T09:57:26.311Z,1360
2016-10-16T09:58:37.489Z,1380
2016-10-16T09:59:48.711Z,1425
2016-10-16T10:00:59.884Z,1435
2016-10-16T10:02:11.061Z,1405
2016-10-16T10:03:22.224Z,1435
2016-10-16T10:04:33.406Z,1475
2016-10-16T10:05:44.590Z,1490
2016-10-16T10:06:55.758Z,1520
2016-10-16T10:08:06.917Z,1505
2016-10-16T10:09:18.096Z,1495
2016-10-16T10:10:29.816Z,1540
2016-10-16T10:11:41.018Z,1600
2016-10-16T10:12:52.182Z,1595
2016-10-16T10:14:03.354Z,1550
2016-10-16T10:15:14.526Z,1625
2016-10-16T10:16:25.690Z,1695
2016-10-16T10:17:36.893Z,1750
2016-10-16T10:18:48.064Z,1765
2016-10-16T10:19:59.203Z,1755
2016-10-16T10:21:10.394Z,1705
2016-10-16T10:22:21.575Z,1800
2016-10-16T10:23:32.741Z,1820
2016-10-16T10:24:43.898Z,1840
2016-10-16T10:25:55.061Z,1805
2016-10-16T10:27:06.247Z,1910
2016-10-16T10:28:17.395Z,1895
2016-10-16T10:29:28.539Z,1890
2016-10-16T10:30:39.722Z,1865
2016-10-16T10:31:50.942Z,1950
2016-10-16T10:33:02.120Z,2005
2016-10-16T10:34:13.294Z,2005
2016-10-16T10:35:24.469Z,1930
2016-10-16T10:36:35.613Z,1865
2016-10-16T10:37:46.802Z,1860
2016-10-16T10:38:58.517Z,1860
2016-10-16T10:40:09.696Z,1890
2016-10-16T10:41:21.128Z,2020
2016-10-16T10:42:32.320Z,1925
2016-10-16T10:43:43.481Z,1755
2016-10-16T10:44:54.666Z,1750
2016-10-16T10:46:05.828Z,1620
2016-10-16T10:47:17.022Z,1505
2016-10-16T10:48:28.176Z,1345
2016-10-16T10:49:39.376Z,1285
2016-10-16T10:50:50.552Z,1250
2016-10-16T10:52:01.715Z,1360
2016-10-16T10:53:12.864Z,2260
2016-10-16T10:54:24.041Z,2295
2016-10-16T10:55:35.194Z,2095
2016-10-16T10:56:46.370Z,2010
2016-10-16T10:57:57.534Z,2010
2016-10-16T10:59:08.699Z,2075
2016-10-16T11:00:19.864Z,2240
2016-10-16T11:01:31.015Z,2240
2016-10-16T11:02:42.163Z,2240
2016-10-16T11:03:53.315Z,2305
2016-10-16T11:05:04.533Z,2400
2016-10-16T11:06:15.682Z,2470
2016-10-16T11:07:27.379Z,2410
2016-10-16T11:08:38.615Z,2475
2016-10-16T11:09:49.756Z,2415
2016-10-16T11:11:00.940Z,2360
2016-10-16T11:12:12.109Z,2450
2016-10-16T11:13:23.295Z,2470
2016-10-16T11:14:34.490Z,2640
2016-10-16T11:15:45.713Z,2495
2016-10-16T11:16:56.880Z,2570
2016-10-16T11:18:08.028Z,2310
2016-10-16T11:19:19.206Z,2420
2016-10-16T11:20:30.356Z,2545
2016-10-16T11:21:41.543Z,2535
2016-10-16T11:22:52.732Z,2585
2016-10-16T11:24:03.895Z,2670
2016-10-16T11:25:15.074Z,2470
2016-10-16T11:26:26.245Z,2565
2016-10-16T11:27:37.431Z,2435
2016-10-16T11:28:48.589Z,2525
2016-10-16T11:29:59.766Z,2555
2016-10-16T11:31:10.951Z,2470
2016-10-16T11:32:22.140Z,2600
2016-10-16T11:33:33.352Z,2585
2016-10-16T11:34:44.527Z,2595
2016-10-16T11:35:55.690Z,2615
2016-10-16T11:37:06.863Z,2690
2016-10-16T11:38:18.039Z,2875
2016-10-16T11:39:29.232Z,3090
2016-10-16T11:40:40.429Z,2875
2016-10-16T11:41:51.592Z,2935
2016-10-16T11:43:02.780Z,2940
2016-10-16T11:44:13.974Z,3120
2016-10-16T11:45:25.156Z,2975
2016-10-16T11:46:36.314Z,2795
2016-10-16T11:47:47.489Z,2795
2016-10-16T11:48:58.662Z,2960
2016-10-16T11:50:09.881Z,2945
2016-10-16T11:51:21.061Z,2835
2016-10-16T11:52:32.215Z,2900
2016-10-16T11:53:43.411Z,2645
2016-10-16T11:54:54.587Z,2705
2016-10-16T11:56:05.769Z,2830
2016-10-16T11:57:17.512Z,2690
2016-10-16T11:58:28.735Z,2715
2016-10-16T11:59:39.924Z,2880
2016-10-16T12:00:51.113Z,2980
2016-10-16T12:02:02.299Z,3005
2016-10-16T12:03:13.496Z,2975
2016-10-16T12:04:24.707Z,2865
2016-10-16T12:05:35.877Z,2850
2016-10-16T12:06:47.043Z,2690
2016-10-16T12:07:58.237Z,2915
2016-10-16T12:09:09.409Z,3050
2016-10-16T12:10:20.575Z,3055
2016-10-16T12:11:31.800Z,2920
2016-10-16T12:12:43.011Z,3140
2016-10-16T12:13:54.201Z,3190
2016-10-16T12:15:05.377Z,3195
2016-10-16T12:16:16.569Z,3160
2016-10-16T12:17:27.760Z,3180
2016-10-16T12:18:38.951Z,3275
2016-10-16T12:19:50.115Z,3145
2016-10-16T12:21:01.279Z,3295
2016-10-16T12:22:12.456Z,3445
2016-10-16T12:23:23.671Z,3380
2016-10-16T12:24:34.847Z,3245
2016-10-16T12:25:46.008Z,3235
2016-10-16T12:26:57.171Z,3170
2016-10-16T12:28:08.359Z,3085
2016-10-16T12:29:19.517Z,3260
2016-10-16T12:30:30.699Z,3215
2016-10-16T12:31:41.922Z,3040
2016-10-16T12:32:54.567Z,3195
2016-10-16T12:34:05.731Z,3455
2016-10-16T12:35:16.977Z,3365
2016-10-16T12:36:28.154Z,3215
2016-10-16T12:37:39.326Z,3125
2016-10-16T12:38:50.505Z,2985
2016-10-16T12:40:01.710Z,2955
2016-10-16T12:41:12.871Z,3220
2016-10-16T12:42:24.043Z,2905
2016-10-16T12:43:35.201Z,3010
2016-10-16T12:44:46.366Z,3185
2016-10-16T12:45:57.541Z,3380
2016-10-16T12:47:08.709Z,3485
2016-10-16T12:48:19.911Z,3450
2016-10-16T12:49:31.107Z,3575
2016-10-16T12:50:42.278Z,3490
2016-10-16T12:51:53.468Z,3570
2016-10-16T12:53:04.641Z,3820
2016-10-16T12:54:15.808Z,3665
2016-10-16T12:55:26.966Z,3365
2016-10-16T12:56:38.139Z,3690
2016-10-16T12:57:49.326Z,3670
2016-10-16T12:59:00.493Z,3600
2016-10-16T13:00:11.686Z,3700
2016-10-16T13:01:22.879Z,3530
2016-10-16T13:02:34.043Z,3570
2016-10-16T13:03:45.213Z,3470
2016-10-16T13:04:56.420Z,3410
2016-10-16T13:06:07.599Z,3495
2016-10-16T13:07:18.760Z,3540
2016-10-16T13:08:29.959Z,3400
2016-10-16T13:09:41.147Z,3520
2016-10-16T13:10:52.343Z,3065
2016-10-16T13:12:03.517Z,3440
2016-10-16T13:13:14.701Z,3550
2016-10-16T13:14:25.978Z,3550
2016-10-16T13:15:37.139Z,3465
2016-10-16T13:16:48.341Z,3515
2016-10-16T13:18:00.084Z,3170
2016-10-16T13:19:11.280Z,3170
2016-10-16T13:20:22.448Z,3405
2016-10-16T13:21:33.598Z,3315
2016-10-16T13:22:44.788Z,3230
2016-10-16T13:23:55.951Z,3135
2016-10-16T13:25:07.145Z,3245
2016-10-16T13:26:18.317Z,3230
2016-10-16T13:27:29.468Z,3010
2016-10-16T13:28:40.621Z,3795
2016-10-16T13:29:51.823Z,3795
2016-10-16T13:31:03.045Z,3690
2016-10-16T13:32:14.249Z,3930
2016-10-16T13:33:25.411Z,4090
2016-10-16T13:34:36.581Z,4245
2016-10-16T13:35:47.908Z,3965
2016-10-16T13:36:59.088Z,4240
2016-10-16T13:38:10.856Z,4245
2016-10-16T13:39:22.034Z,4280
2016-10-16T13:40:33.193Z,4035
2016-10-16T13:41:44.414Z,4260
2016-10-16T13:42:55.584Z,4170
2016-10-16T13:44:06.778Z,4165
2016-10-16T13:45:17.970Z,4260
2016-10-16T13:46:29.167Z,4325
2016-10-16T13:47:40.342Z,4175
2016-10-16T13:48:51.526Z,4130
2016-10-16T13:50:02.705Z,4220
2016-10-16T13:51:13.889Z,4125
2016-10-16T13:52:25.047Z,4115
2016-10-16T13:53:36.229Z,4190
2016-10-16T13:54:47.404Z,4370
2016-10-16T13:55:58.581Z,4185
2016-10-16T13:57:09.766Z,4290
2016-10-16T13:58:20.941Z,4360
2016-10-16T13:59:32.147Z,4450
2016-10-16T14:00:43.317Z,4340
2016-10-16T14:01:54.495Z,4285
2016-10-16T14:03:05.668Z,4230
2016-10-16T14:04:16.829Z,4315
2016-10-16T14:05:28.038Z,3965
2016-10-16T14:06:39.210Z,4305
2016-10-16T14:07:50.922Z,4030
2016-10-16T14:09:02.113Z,3920
2016-10-16T14:10:13.277Z,4315
2016-10-16T14:11:24.471Z,4260
2016-10-16T14:12:35.649Z,4015
2016-10-16T14:13:46.806Z,4305
2016-10-16T14:14:57.989Z,4140
2016-10-16T14:16:09.177Z,4350
2016-10-16T14:17:20.352Z,4435
2016-10-16T14:18:31.523Z,4490
2016-10-16T14:19:42.692Z,4435
2016-10-16T14:20:53.919Z,4410
2016-10-16T14:22:05.121Z,4405
2016-10-16T14:23:16.312Z,4390
2016-10-16T14:24:27.484Z,4250
2016-10-16T14:25:38.642Z,3940
2016-10-16T14:26:49.851Z,4445
2016-10-16T14:28:01.022Z,4305
2016-10-16T14:29:12.757Z,4135
2016-10-16T14:30:23.944Z,3895
2016-10-16T14:31:35.163Z,3905
2016-10-16T14:32:46.346Z,4315
2016-10-16T14:33:57.549Z,4335
2016-10-16T14:35:08.727Z,4260
2016-10-16T14:36:19.918Z,4035
2016-10-16T14:37:31.091Z,3965
2016-10-16T14:38:42.283Z,3960
2016-10-16T14:39:53.463Z,3810
2016-10-16T14:41:04.676Z,3875
2016-10-16T14:42:15.857Z,4340
2016-10-16T14:43:27.063Z,4420
2016-10-16T14:44:38.272Z,4655
2016-10-16T14:45:49.446Z,4455
2016-10-16T14:47:00.632Z,4530
2016-10-16T14:48:11.851Z,4440
2016-10-16T14:49:23.032Z,4290
2016-10-16T14:50:34.217Z,4515
2016-10-16T14:51:45.403Z,4530
2016-10-16T14:52:56.564Z,4495
2016-10-16T14:54:07.761Z,4420
2016-10-16T14:55:18.916Z,4285
2016-10-16T14:56:30.112Z,4255
2016-10-16T14:57:41.303Z,4565
2016-10-16T14:58:52.491Z,4390
2016-10-16T15:00:03.655Z,4430
2016-10-16T15:01:14.850Z,4370
2016-10-16T15:02:26.027Z,4340
2016-10-16T15:03:37.232Z,4540
2016-10-16T15:04:48.450Z,4430
2016-10-16T15:05:59.620Z,4505
2016-10-16T15:07:10.801Z,4270
2016-10-16T15:08:22.003Z,4535
2016-10-16T15:09:33.210Z,4305
2016-10-16T15:10:44.420Z,4475
2016-10-16T15:11:55.614Z,4455
2016-10-16T15:13:06.806Z,4370
2016-10-16T15:14:18.022Z,4425
2016-10-16T15:15:29.775Z,4345
2016-10-16T15:16:40.979Z,4005
2016-10-16T15:17:52.180Z,1925
2016-10-16T15:19:03.389Z,4005
2016-10-16T15:20:14.587Z,2565
2016-10-16T15:21:25.784Z,2825
2016-10-16T15:22:36.963Z,4000
2016-10-16T15:23:48.160Z,4125
2016-10-16T15:24:59.367Z,3965
2016-10-16T15:26:10.530Z,3855
2016-10-16T15:27:21.697Z,3965
2016-10-16T15:28:32.873Z,4185
2016-10-16T15:29:44.073Z,4075
2016-10-16T15:30:55.249Z,4105
2016-10-16T15:32:06.439Z,4240
2016-10-16T15:33:17.625Z,4125
2016-10-16T15:34:28.800Z,4055
2016-10-16T15:35:39.992Z,4075
2016-10-16T15:36:51.167Z,3995
2016-10-16T15:38:02.339Z,3975
2016-10-16T15:39:13.511Z,4070
2016-10-16T15:40:24.698Z,3810
2016-10-16T15:41:36.476Z,4055
2016-10-16T15:42:47.682Z,4250
2016-10-16T15:43:58.904Z,4330
2016-10-16T15:45:10.088Z,4250
2016-10-16T15:46:21.259Z,4005
2016-10-16T15:47:32.456Z,4125
2016-10-16T15:48:43.647Z,3960
2016-10-16T15:49:54.823Z,3955
2016-10-16T15:51:06.009Z,3295
2016-10-16T15:52:17.208Z,3155
2016-10-16T15:53:28.376Z,3195
2016-10-16T15:54:39.596Z,3355
2016-10-16T15:55:50.774Z,2840
2016-10-16T15:57:01.980Z,2845
2016-10-16T15:58:13.186Z,3345
2016-10-16T15:59:24.394Z,3775
2016-10-16T16:00:35.602Z,3190
2016-10-16T16:01:46.792Z,2475
2016-10-16T16:02:57.985Z,2290
2016-10-16T16:04:09.732Z,2315
2016-10-16T16:05:20.918Z,2405
2016-10-16T16:06:32.115Z,2320
2016-10-16T16:07:43.338Z,2535
2016-10-16T16:08:54.525Z,2340
2016-10-16T16:10:05.700Z,3360
2016-10-16T16:11:17.450Z,3975
2016-10-16T16:12:28.609Z,3860
2016-10-16T16:13:39.773Z,3485
2016-10-16T16:14:50.940Z,3250
2016-10-16T16:16:02.135Z,3705
2016-10-16T16:17:13.333Z,3680
2016-10-16T16:18:24.527Z,3575
2016-10-16T16:19:35.720Z,3645
2016-10-16T16:20:46.892Z,3230
2016-10-16T16:21:58.095Z,3070
2016-10-16T16:23:09.307Z,3250
2016-10-16T16:24:20.492Z,3610
2016-10-16T16:25:31.698Z,3455
2016-10-16T16:26:42.877Z,3430
2016-10-16T16:27:54.074Z,3090
2016-10-16T16:29:05.263Z,3170
2016-10-16T16:30:16.452Z,3215
2016-10-16T16:31:27.623Z,3385
2016-10-16T16:32:38.805Z,3650
2016-10-16T16:33:49.994Z,3515
2016-10-16T16:35:01.201Z,3330
2016-10-16T16:36:12.378Z,3145
2016-10-16T16:37:23.550Z,2835
2016-10-16T16:38:34.740Z,895
2016-10-16T16:39:45.931Z,3420
2016-10-16T16:40:57.111Z,3455